Main page
METAR-TAF:

METAR-TAF

Airports :

Ilam Airport

Ilam, Iran

latitude: 33-35-09N, longitude: 046-24-20E, elevation: 1334 m

Current weather observation

The report was made 52 minutes ago, at 21:00 UTC
Calm wind
Temperature 25°C
Humidity 24%
Pressure 1008 hPa
Visibility: 8000 m

METAR: OICI 052100Z 00000KT 8000 NSC 25/03 Q1008

Time: 02:22 (21:52 UTC)

Forecast

The report was made 4 hours and 22 minutes ago, at 17:30 UTC
Forecast valid from 05 at 18 UTC to 06 at 24 UTC
Wind 10 kt from the West
Visibility: 7000 m
Temporary
from 05 at 18 UTC to 06 at 03 UTC
Visibility: 4000 m
widespread dust
Temporary
from 06 at 06 UTC to 06 at 15 UTC
Wind 16 kt from the South/Southwest
Visibility: 4000 m
widespread dust

TAF: OICI 051730Z 0518/0624 27010KT 7000 NSC TEMPO 0518/0603 4000 DU TEMPO 0606/0615 20016KT 4000 DU

Weather observations and forecasts of more than 4000 airports (METAR and TAF reports).

The available stations are represented by yellow and red dots on the map.

Hover mouse over dot to see the name of the station.

Then click to see weather observations and forecasts.

To change the map : click on the green buttons with a black cross to zoom in, on the green button with a dash to zoom out, or on the green arrows for adjacent maps.


METAR-TAF: